createdAt,value
2023-04-17T00:02:30.093Z,7.43
2023-04-17T00:05:36.253Z,7.56
2023-04-17T00:08:43.733Z,7.74
2023-04-17T00:11:50.082Z,7.21
2023-04-17T00:14:57.544Z,6.86
2023-04-17T00:18:03.568Z,7.00
2023-04-17T00:21:09.652Z,7.07
2023-04-17T00:24:15.691Z,7.27
2023-04-17T00:27:21.610Z,7.45
2023-04-17T00:30:28.869Z,7.34
2023-04-17T00:33:35.038Z,7.50
2023-04-17T00:36:41.091Z,7.51
2023-04-17T00:39:47.220Z,7.25
2023-04-17T00:42:56.323Z,7.22
2023-04-17T00:46:04.855Z,7.19
2023-04-17T00:49:12.337Z,6.67
2023-04-17T00:52:28.805Z,6.48
2023-04-17T00:55:36.699Z,6.61
2023-04-17T00:58:43.256Z,6.66
2023-04-17T01:01:50.720Z,6.41
2023-04-17T01:04:57.088Z,6.69
2023-04-17T01:08:03.032Z,6.43
2023-04-17T01:11:09.364Z,6.17
2023-04-17T01:14:16.407Z,6.33
2023-04-17T01:17:26.402Z,6.36
2023-04-17T01:20:34.281Z,6.45
2023-04-17T01:23:46.502Z,6.13
2023-04-17T01:26:54.275Z,5.75
2023-04-17T01:30:00.584Z,6.09
2023-04-17T01:33:08.390Z,6.13
2023-04-17T01:36:14.811Z,6.73
2023-04-17T01:39:20.642Z,6.79
2023-04-17T01:42:28.362Z,6.81
2023-04-17T01:45:34.356Z,7.02
2023-04-17T01:48:40.818Z,7.34
2023-04-17T01:51:46.786Z,7.25
2023-04-17T01:54:52.736Z,7.13
2023-04-17T01:58:00.355Z,6.85
2023-04-17T02:01:06.814Z,7.18
2023-04-17T02:04:13.385Z,7.21
2023-04-17T02:07:19.992Z,7.36
2023-04-17T02:10:26.262Z,7.33
2023-04-17T02:13:33.896Z,7.23
2023-04-17T02:16:45.775Z,6.61
2023-04-17T02:19:51.717Z,6.67
2023-04-17T02:22:57.478Z,6.51
2023-04-17T02:26:03.736Z,6.38
2023-04-17T02:29:11.440Z,6.77
2023-04-17T02:32:18.530Z,6.49
2023-04-17T02:35:26.202Z,7.14
2023-04-17T02:38:32.490Z,7.10
2023-04-17T02:41:38.765Z,7.20
2023-04-17T02:44:47.074Z,7.36
2023-04-17T02:47:53.293Z,7.39
2023-04-17T02:50:59.323Z,7.15
2023-04-17T02:54:05.905Z,6.43
2023-04-17T02:57:12.482Z,6.57
2023-04-17T03:00:20.923Z,6.78
2023-04-17T03:03:31.261Z,6.95
2023-04-17T03:06:37.478Z,6.81
2023-04-17T03:09:45.880Z,6.73
2023-04-17T03:12:52.044Z,7.04
2023-04-17T03:16:00.471Z,6.73
2023-04-17T03:19:06.909Z,6.97
2023-04-17T03:22:13.479Z,6.40
2023-04-17T03:25:19.835Z,6.60
2023-04-17T03:28:26.580Z,7.17
2023-04-17T03:31:34.059Z,7.11
2023-04-17T03:34:40.415Z,7.40
2023-04-17T03:37:46.858Z,7.51
2023-04-17T03:40:53.104Z,7.59
2023-04-17T03:44:02.293Z,7.45
2023-04-17T03:47:11.536Z,7.37
2023-04-17T03:50:18.077Z,7.48
2023-04-17T03:53:24.274Z,7.43
2023-04-17T03:56:30.257Z,7.41
2023-04-17T03:59:36.390Z,7.55
2023-04-17T04:02:44.016Z,7.65
2023-04-17T04:05:50.151Z,7.67
2023-04-17T04:08:56.149Z,7.62
2023-04-17T04:12:02.539Z,7.77
2023-04-17T04:15:10.241Z,7.56
2023-04-17T04:18:18.352Z,7.85
2023-04-17T04:21:24.945Z,7.86
2023-04-17T04:24:31.838Z,7.79
2023-04-17T04:27:39.714Z,7.87
2023-04-17T04:30:51.132Z,7.89
2023-04-17T04:33:59.717Z,8.07
2023-04-17T04:37:05.819Z,8.01
2023-04-17T04:40:12.532Z,8.45
2023-04-17T04:43:20.812Z,8.02
2023-04-17T04:46:28.523Z,8.01
2023-04-17T04:49:36.349Z,7.91
2023-04-17T04:52:42.337Z,8.05
2023-04-17T04:55:48.797Z,8.11
2023-04-17T04:58:55.336Z,8.22
2023-04-17T05:02:01.610Z,8.04
2023-04-17T05:05:11.127Z,8.22
2023-04-17T05:08:17.307Z,8.27
2023-04-17T05:11:23.494Z,8.19
2023-04-17T05:14:30.649Z,8.49
2023-04-17T05:17:37.650Z,8.58
2023-04-17T05:20:45.696Z,8.45
2023-04-17T05:23:52.368Z,8.50
2023-04-17T05:26:58.604Z,8.40
2023-04-17T05:30:05.781Z,8.42
2023-04-17T05:33:11.989Z,8.83
2023-04-17T05:36:19.868Z,8.91
2023-04-17T05:39:26.377Z,9.00
2023-04-17T05:42:32.394Z,8.52
2023-04-17T05:45:39.308Z,8.48
2023-04-17T05:48:45.757Z,8.62
2023-04-17T05:51:53.329Z,8.50
2023-04-17T05:54:59.355Z,8.54
2023-04-17T05:58:20.518Z,7.98
2023-04-17T06:01:30.092Z,8.23
2023-04-17T06:04:36.741Z,8.20
2023-04-17T06:07:44.471Z,8.22
2023-04-17T06:10:52.409Z,8.53
2023-04-17T06:13:58.608Z,8.37
2023-04-17T06:17:04.795Z,8.78
2023-04-17T06:20:11.315Z,8.37
2023-04-17T06:23:19.280Z,8.39
2023-04-17T06:26:25.688Z,8.22
2023-04-17T06:29:32.124Z,8.73
2023-04-17T06:32:42.938Z,8.55
2023-04-17T06:35:49.416Z,8.91
2023-04-17T06:38:56.953Z,8.87
2023-04-17T06:42:03.155Z,8.99
2023-04-17T06:45:10.309Z,9.10
2023-04-17T06:48:16.694Z,9.36
2023-04-17T06:51:25.052Z,9.04
2023-04-17T06:54:32.834Z,9.36
2023-04-17T06:57:39.470Z,9.30
2023-04-17T07:00:45.794Z,9.35
2023-04-17T07:03:52.433Z,9.78
2023-04-17T07:06:59.010Z,9.70
2023-04-17T07:10:07.632Z,9.95
2023-04-17T07:13:14.075Z,10.24
2023-04-17T07:16:22.960Z,9.82
2023-04-17T07:19:29.210Z,9.93
2023-04-17T07:22:35.616Z,9.89
2023-04-17T07:25:44.084Z,10.02
2023-04-17T07:28:50.947Z,9.86
2023-04-17T07:31:57.449Z,10.06
2023-04-17T07:35:04.642Z,9.92
2023-04-17T07:38:11.340Z,10.24
2023-04-17T07:41:19.043Z,10.33
2023-04-17T07:44:25.576Z,10.76
2023-04-17T07:47:32.219Z,11.36
2023-04-17T07:50:38.471Z,11.44
2023-04-17T07:53:45.074Z,11.66
2023-04-17T07:56:52.687Z,12.01
2023-04-17T07:59:59.160Z,12.57
2023-04-17T08:03:05.841Z,12.46
2023-04-17T08:06:12.008Z,12.57
2023-04-17T08:09:18.259Z,12.48
2023-04-17T08:12:26.142Z,13.42
2023-04-17T08:15:32.860Z,13.29
2023-04-17T08:18:39.470Z,13.10
2023-04-17T08:21:46.032Z,13.72
2023-04-17T08:24:54.869Z,14.05
2023-04-17T08:28:02.432Z,13.68
2023-04-17T08:31:10.510Z,13.27
2023-04-17T08:34:16.905Z,12.27
2023-04-17T08:37:23.021Z,12.46
2023-04-17T08:40:29.404Z,12.35
2023-04-17T08:43:37.574Z,12.63
2023-04-17T08:46:44.184Z,12.20
2023-04-17T08:49:50.776Z,11.99
2023-04-17T08:52:56.917Z,12.13
2023-04-17T08:56:08.299Z,12.10
2023-04-17T08:59:17.298Z,12.66
2023-04-17T09:02:26.059Z,13.04
2023-04-17T09:05:34.464Z,13.08
2023-04-17T09:08:54.974Z,12.33
2023-04-17T09:12:11.490Z,12.17
2023-04-17T09:15:19.747Z,12.22
2023-04-17T09:18:26.984Z,12.72
2023-04-17T09:21:33.450Z,12.67
2023-04-17T09:24:39.690Z,12.33
2023-04-17T09:27:46.184Z,12.65
2023-04-17T09:30:53.452Z,12.66
2023-04-17T09:34:01.120Z,12.63
2023-04-17T09:37:07.455Z,11.83
2023-04-17T09:40:13.692Z,11.82
2023-04-17T09:43:21.588Z,11.94
2023-04-17T09:46:40.807Z,11.78
2023-04-17T09:49:52.497Z,12.06
2023-04-17T09:52:58.887Z,12.52
2023-04-17T09:56:06.791Z,11.99
2023-04-17T09:59:13.251Z,12.77
2023-04-17T10:02:21.875Z,13.11
2023-04-17T10:05:30.289Z,12.40
2023-04-17T10:08:36.478Z,13.47
2023-04-17T10:11:46.239Z,14.32
2023-04-17T10:14:53.449Z,13.94
2023-04-17T10:18:23.247Z,14.14
2023-04-17T10:21:30.120Z,13.29
2023-04-17T10:24:36.663Z,12.99
2023-04-17T10:27:47.416Z,13.63
2023-04-17T10:30:55.568Z,13.91
2023-04-17T10:34:03.655Z,13.95
2023-04-17T10:37:15.218Z,13.88
2023-04-17T10:40:24.148Z,13.77
2023-04-17T10:43:30.575Z,13.63
2023-04-17T10:46:52.322Z,13.42
2023-04-17T10:50:00.606Z,13.89
2023-04-17T10:53:06.974Z,13.96
2023-04-17T10:56:18.534Z,14.36
2023-04-17T10:59:30.277Z,13.66
2023-04-17T11:02:37.490Z,15.01
2023-04-17T11:05:47.941Z,14.82
2023-04-17T11:08:57.408Z,14.83
2023-04-17T11:12:03.684Z,13.91
2023-04-17T11:15:10.535Z,14.29
2023-04-17T11:18:16.653Z,14.89
2023-04-17T11:21:24.461Z,14.87
2023-04-17T11:24:31.540Z,15.07
2023-04-17T11:27:37.727Z,14.79
2023-04-17T11:30:45.621Z,14.66
2023-04-17T11:33:51.933Z,14.49
2023-04-17T11:37:00.769Z,15.11
2023-04-17T11:40:10.310Z,14.91
2023-04-17T11:43:17.628Z,15.21
2023-04-17T11:46:24.844Z,15.43
2023-04-17T11:49:32.607Z,15.57
2023-04-17T11:52:40.860Z,15.77
2023-04-17T11:55:47.840Z,15.28
2023-04-17T11:58:55.755Z,15.60
2023-04-17T12:02:02.648Z,15.94
2023-04-17T12:05:15.571Z,15.69
2023-04-17T12:08:24.118Z,15.50
2023-04-17T12:11:32.792Z,15.91
2023-04-17T12:14:38.867Z,16.02
2023-04-17T12:17:44.924Z,16.00
2023-04-17T12:20:51.443Z,15.45
2023-04-17T12:23:59.115Z,15.19
2023-04-17T12:27:05.318Z,15.47
2023-04-17T12:30:13.180Z,15.46
2023-04-17T12:33:19.369Z,15.28
2023-04-17T12:36:26.014Z,15.50
2023-04-17T12:39:33.933Z,15.77
2023-04-17T12:42:48.756Z,16.08
2023-04-17T12:45:55.881Z,15.63
2023-04-17T12:49:02.079Z,16.67
2023-04-17T12:52:08.239Z,15.84
2023-04-17T12:55:15.805Z,16.76
2023-04-17T12:58:21.847Z,16.93
2023-04-17T13:01:28.146Z,16.26
2023-04-17T13:04:34.972Z,15.71
2023-04-17T13:07:41.210Z,15.36
2023-04-17T13:10:48.682Z,15.35
2023-04-17T13:13:55.132Z,15.35
2023-04-17T13:17:01.642Z,14.72
2023-04-17T13:20:08.969Z,15.29
2023-04-17T13:23:15.290Z,15.25
2023-04-17T13:26:23.338Z,15.61
2023-04-17T13:29:29.576Z,15.28
2023-04-17T13:32:36.327Z,15.65
2023-04-17T13:35:42.931Z,15.80
2023-04-17T13:38:49.349Z,16.43
2023-04-17T13:41:58.438Z,17.30
2023-04-17T13:45:05.187Z,16.37
2023-04-17T13:48:12.169Z,16.55
2023-04-17T13:51:18.688Z,17.00
2023-04-17T13:54:24.916Z,16.80
2023-04-17T13:57:32.919Z,16.28
2023-04-17T14:00:39.128Z,16.75
2023-04-17T14:03:46.266Z,17.53
2023-04-17T14:06:52.959Z,16.57
2023-04-17T14:09:59.111Z,17.58
2023-04-17T14:13:07.231Z,18.37
2023-04-17T14:16:13.731Z,18.33
2023-04-17T14:19:20.122Z,17.63
2023-04-17T14:22:26.672Z,16.68
2023-04-17T14:25:33.118Z,17.05
2023-04-17T14:28:40.760Z,15.83
2023-04-17T14:31:47.338Z,15.24
2023-04-17T14:34:54.612Z,15.30
2023-04-17T14:38:01.013Z,15.90
2023-04-17T14:41:07.416Z,15.30
2023-04-17T14:44:15.745Z,14.88
2023-04-17T14:47:22.433Z,14.68
2023-04-17T14:50:28.591Z,14.84
2023-04-17T14:53:35.026Z,14.82
2023-04-17T14:56:41.425Z,14.14
2023-04-17T14:59:49.493Z,14.03
2023-04-17T15:02:55.848Z,13.64
2023-04-17T15:06:03.327Z,13.96
2023-04-17T15:09:10.359Z,13.56
2023-04-17T15:12:16.780Z,13.74
2023-04-17T15:15:24.449Z,13.43
2023-04-17T15:18:31.041Z,13.28
2023-04-17T15:21:37.454Z,13.49
2023-04-17T15:24:43.794Z,13.24
2023-04-17T15:27:49.895Z,13.05
2023-04-17T15:30:57.943Z,13.41
2023-04-17T15:34:04.410Z,13.07
2023-04-17T15:37:11.962Z,12.95
2023-04-17T15:40:18.022Z,12.87
2023-04-17T15:43:24.753Z,12.92
2023-04-17T15:46:32.729Z,12.70
2023-04-17T15:49:38.888Z,12.71
2023-04-17T15:52:45.162Z,12.72
2023-04-17T15:55:53.375Z,12.63
2023-04-17T15:58:59.789Z,12.51
2023-04-17T16:02:08.055Z,12.28
2023-04-17T16:05:15.248Z,12.13
2023-04-17T16:08:21.659Z,12.04
2023-04-17T16:11:28.760Z,12.09
2023-04-17T16:14:35.223Z,11.85
2023-04-17T16:17:43.486Z,11.84
2023-04-17T16:20:49.790Z,11.75
2023-04-17T16:23:57.479Z,11.97
2023-04-17T16:27:04.366Z,11.80
2023-04-17T16:30:11.418Z,11.92
2023-04-17T16:33:18.878Z,11.69
2023-04-17T16:36:26.102Z,11.78
2023-04-17T16:39:32.709Z,11.98
2023-04-17T16:42:39.072Z,11.53
2023-04-17T16:45:45.373Z,11.63
2023-04-17T16:48:53.200Z,11.61
2023-04-17T16:51:59.794Z,11.56
2023-04-17T16:55:06.453Z,11.44
2023-04-17T16:58:12.596Z,11.02
2023-04-17T17:01:18.834Z,11.30
2023-04-17T17:04:26.265Z,11.22
2023-04-17T17:07:32.733Z,11.21
2023-04-17T17:10:39.093Z,11.15
2023-04-17T17:13:48.016Z,10.97
2023-04-17T17:16:54.597Z,10.79
2023-04-17T17:20:02.360Z,11.01
2023-04-17T17:23:08.436Z,10.90
2023-04-17T17:26:14.927Z,10.94
2023-04-17T17:29:21.381Z,10.73
2023-04-17T17:32:27.671Z,10.63
2023-04-17T17:35:35.228Z,10.70
2023-04-17T17:38:41.747Z,10.78
2023-04-17T17:41:48.141Z,10.68
2023-04-17T17:44:54.632Z,10.86
2023-04-17T17:48:00.915Z,10.62
2023-04-17T17:51:08.733Z,10.70
2023-04-17T17:54:15.114Z,10.72
2023-04-17T17:57:21.436Z,10.66
2023-04-17T18:00:27.762Z,10.68
2023-04-17T18:03:35.458Z,10.47
2023-04-17T18:06:43.135Z,10.70
2023-04-17T18:09:50.802Z,10.47
2023-04-17T18:12:57.421Z,10.63
2023-04-17T18:16:05.238Z,10.61
2023-04-17T18:19:11.298Z,10.52
2023-04-17T18:22:20.609Z,10.72
2023-04-17T18:25:26.490Z,10.72
2023-04-17T18:28:33.898Z,10.54
2023-04-17T18:31:39.896Z,10.41
2023-04-17T18:34:49.285Z,10.62
2023-04-17T18:37:57.584Z,10.68
2023-04-17T18:41:03.930Z,10.72
2023-04-17T18:44:09.694Z,10.66
2023-04-17T18:47:15.799Z,10.84
2023-04-17T18:50:21.996Z,10.88
2023-04-17T18:53:29.595Z,10.68
2023-04-17T18:56:35.596Z,10.69
2023-04-17T18:59:43.226Z,10.56
2023-04-17T19:02:49.648Z,10.63
2023-04-17T19:05:55.881Z,10.49
2023-04-17T19:09:03.599Z,10.52
2023-04-17T19:12:10.311Z,10.42
2023-04-17T19:15:17.762Z,10.45
2023-04-17T19:18:24.289Z,10.53
2023-04-17T19:21:31.819Z,10.42
2023-04-17T19:24:39.417Z,10.48
2023-04-17T19:27:46.141Z,10.53
2023-04-17T19:30:52.396Z,10.30
2023-04-17T19:33:58.753Z,10.42
2023-04-17T19:37:05.045Z,10.42
2023-04-17T19:40:24.237Z,10.41
2023-04-17T19:43:31.727Z,10.36
2023-04-17T19:46:37.900Z,10.39
2023-04-17T19:49:44.102Z,10.40
2023-04-17T19:52:51.625Z,10.27
2023-04-17T19:55:59.201Z,10.24
2023-04-17T19:59:06.175Z,10.37
2023-04-17T20:02:12.649Z,10.27
2023-04-17T20:05:19.569Z,10.34
2023-04-17T20:08:26.344Z,10.44
2023-04-17T20:11:34.175Z,10.45
2023-04-17T20:14:40.520Z,10.40
2023-04-17T20:17:46.800Z,10.08
2023-04-17T20:20:53.037Z,10.19
2023-04-17T20:23:59.629Z,10.30
2023-04-17T20:27:07.356Z,10.18
2023-04-17T20:30:14.617Z,10.19
2023-04-17T20:33:20.672Z,10.11
2023-04-17T20:36:27.463Z,10.04
2023-04-17T20:39:33.374Z,9.97
2023-04-17T20:42:41.146Z,10.14
2023-04-17T20:45:48.459Z,10.21
2023-04-17T20:48:54.567Z,10.25
2023-04-17T20:52:02.190Z,10.07
2023-04-17T20:55:09.381Z,10.15
2023-04-17T20:58:16.822Z,10.21
2023-04-17T21:01:23.176Z,10.32
2023-04-17T21:04:29.330Z,10.14
2023-04-17T21:07:35.493Z,10.11
2023-04-17T21:10:41.450Z,10.17
2023-04-17T21:13:49.351Z,10.11
2023-04-17T21:16:58.458Z,10.24
2023-04-17T21:20:05.663Z,10.13
2023-04-17T21:23:11.880Z,10.12
2023-04-17T21:26:18.824Z,10.08
2023-04-17T21:29:26.275Z,10.21
2023-04-17T21:32:32.240Z,10.14
2023-04-17T21:35:38.322Z,10.11
2023-04-17T21:38:44.363Z,10.06
2023-04-17T21:41:50.442Z,10.11
2023-04-17T21:44:58.032Z,10.13
2023-04-17T21:48:04.521Z,10.23
2023-04-17T21:51:10.941Z,10.11
2023-04-17T21:54:17.283Z,10.04
2023-04-17T21:57:23.488Z,10.12
2023-04-17T22:00:31.125Z,10.07
2023-04-17T22:03:38.353Z,9.94
2023-04-17T22:06:44.544Z,10.07
2023-04-17T22:09:50.542Z,10.30
2023-04-17T22:12:56.726Z,10.20
2023-04-17T22:16:04.323Z,10.15
2023-04-17T22:19:10.460Z,10.03
2023-04-17T22:22:16.607Z,10.22
2023-04-17T22:25:22.829Z,9.96
2023-04-17T22:28:31.050Z,9.84
2023-04-17T22:31:38.623Z,9.87
2023-04-17T22:34:51.145Z,10.05
2023-04-17T22:37:57.384Z,10.05
2023-04-17T22:41:04.068Z,10.17
2023-04-17T22:44:10.376Z,10.00
2023-04-17T22:47:17.861Z,9.80
2023-04-17T22:50:23.929Z,10.00
2023-04-17T22:53:31.502Z,10.07
2023-04-17T22:56:37.662Z,9.91
2023-04-17T22:59:43.918Z,10.02
2023-04-17T23:02:51.472Z,9.83
2023-04-17T23:05:57.982Z,9.87
2023-04-17T23:09:05.028Z,9.83
2023-04-17T23:12:11.330Z,10.09
2023-04-17T23:15:17.388Z,9.88
2023-04-17T23:18:25.049Z,9.89
2023-04-17T23:21:31.463Z,9.89
2023-04-17T23:24:37.252Z,10.04
2023-04-17T23:27:43.485Z,9.89
2023-04-17T23:30:49.581Z,9.94
2023-04-17T23:33:57.354Z,9.77
2023-04-17T23:37:03.691Z,9.98
2023-04-17T23:40:10.996Z,9.93
2023-04-17T23:43:16.900Z,9.88
2023-04-17T23:46:23.446Z,10.02
2023-04-17T23:49:30.843Z,9.85
2023-04-17T23:52:36.786Z,9.80
2023-04-17T23:55:43.215Z,9.92
2023-04-17T23:58:49.663Z,9.82
